Time;durP1;ratioP1;P1;durP2;ratioP2;P2;SDS_P1;SDS_P2;PMS_P1;PMS_P2;Temp;Humidity;BMP_temperature;BMP_pressure;BME280_temperature;BME280_humidity;BME280_pressure;Samples;Min_cycle;Max_cycle;Signal;HPM_P1;HPM_P2
2023/01/19 00:01:25;;;;;;;8.35;4.95;;;3.00;99.90;;;;;;5072419;28;20131;-70
2023/01/19 00:03:51;;;;;;;7.72;4.93;;;3.00;99.90;;;;;;5072408;28;20041;-70
2023/01/19 00:06:17;;;;;;;6.63;4.00;;;3.00;99.90;;;;;;5072618;28;20144;-70
2023/01/19 00:08:44;;;;;;;8.80;3.97;;;3.00;99.90;;;;;;5072514;28;20049;-70
2023/01/19 00:11:11;;;;;;;6.03;3.63;;;3.00;99.90;;;;;;5072158;28;20120;-70
2023/01/19 00:13:38;;;;;;;9.68;3.53;;;3.00;99.90;;;;;;5055570;28;20036;-70
2023/01/19 00:16:04;;;;;;;4.20;2.20;;;3.00;99.90;;;;;;5072446;28;20117;-70
2023/01/19 00:18:29;;;;;;;6.53;2.40;;;3.10;99.90;;;;;;5073406;28;20040;-70
2023/01/19 00:20:55;;;;;;;5.35;2.28;;;3.00;99.90;;;;;;5071752;28;20051;-70
2023/01/19 00:23:21;;;;;;;14.15;2.40;;;3.10;99.90;;;;;;5072173;28;20049;-70
2023/01/19 00:25:48;;;;;;;5.13;2.00;;;3.10;99.90;;;;;;5072102;28;20051;-70
2023/01/19 00:28:15;;;;;;;4.72;1.80;;;3.10;99.90;;;;;;5072032;28;20054;-70
2023/01/19 00:30:42;;;;;;;3.17;1.88;;;3.10;99.90;;;;;;5072154;28;20080;-70
2023/01/19 00:33:09;;;;;;;2.92;1.60;;;3.00;99.90;;;;;;5072016;28;20109;-70
2023/01/19 00:35:35;;;;;;;3.95;1.50;;;3.00;99.90;;;;;;5072242;28;20123;-70
2023/01/19 00:38:01;;;;;;;3.33;1.63;;;3.00;99.90;;;;;;5071956;28;20037;-70
2023/01/19 00:40:27;;;;;;;5.18;1.50;;;3.00;99.90;;;;;;5071870;28;20048;-70
2023/01/19 00:42:53;;;;;;;2.55;1.67;;;2.90;99.90;;;;;;5071900;28;20047;-70
2023/01/19 00:45:22;;;;;;;3.97;1.92;;;2.90;99.90;;;;;;5071922;28;20044;-70
2023/01/19 00:47:57;;;;;;;2.22;1.95;;;2.80;99.90;;;;;;5071830;28;20059;-70
2023/01/19 00:50:26;;;;;;;4.97;2.60;;;2.60;99.90;;;;;;5055122;28;20040;-71
2023/01/19 00:52:53;;;;;;;3.70;2.67;;;2.60;99.90;;;;;;5071751;28;20029;-71
2023/01/19 00:55:19;;;;;;;3.38;2.45;;;2.50;99.90;;;;;;5071711;28;20055;-70
2023/01/19 00:57:45;;;;;;;3.45;2.65;;;2.40;99.90;;;;;;5071734;28;20036;-70
2023/01/19 01:00:13;;;;;;;3.45;2.38;;;2.30;99.90;;;;;;5071653;28;20136;-70
2023/01/19 01:02:40;;;;;;;4.30;2.80;;;2.30;99.90;;;;;;5071606;28;20135;-70
2023/01/19 01:05:06;;;;;;;3.22;2.67;;;2.20;99.90;;;;;;5071656;28;20523;-70
2023/01/19 01:07:39;;;;;;;3.38;2.60;;;2.20;99.90;;;;;;5071684;28;20048;-70
2023/01/19 01:10:07;;;;;;;3.70;2.70;;;2.10;99.90;;;;;;5071575;28;20058;-70
2023/01/19 01:12:33;;;;;;;3.28;2.20;;;2.10;99.90;;;;;;5071827;28;20045;-70
2023/01/19 01:14:59;;;;;;;3.97;2.60;;;2.10;99.90;;;;;;5071572;28;20572;-70
2023/01/19 01:17:24;;;;;;;4.45;2.35;;;2.10;99.90;;;;;;5071831;28;20123;-70
2023/01/19 01:19:51;;;;;;;2.63;2.15;;;2.10;99.90;;;;;;5071470;28;20036;-70
2023/01/19 01:22:17;;;;;;;3.38;2.53;;;2.10;99.90;;;;;;5071497;28;20048;-70
2023/01/19 01:24:43;;;;;;;3.72;2.65;;;2.20;99.90;;;;;;5071739;28;20099;-70
2023/01/19 01:27:08;;;;;;;3.70;2.35;;;2.20;99.90;;;;;;5071457;28;20485;-70
2023/01/19 01:29:34;;;;;;;3.00;2.67;;;2.10;99.90;;;;;;5071669;28;20094;-70
2023/01/19 01:32:00;;;;;;;3.67;2.80;;;2.20;99.90;;;;;;5071518;28;20493;-70
2023/01/19 01:34:26;;;;;;;4.65;3.40;;;2.20;99.90;;;;;;5077045;28;20363;-70
2023/01/19 01:36:53;;;;;;;3.78;3.30;;;2.30;99.90;;;;;;5075268;28;20040;-70
2023/01/19 01:39:19;;;;;;;3.70;3.00;;;2.30;99.90;;;;;;5075063;28;20045;-70
2023/01/19 01:41:45;;;;;;;5.05;3.63;;;2.20;99.90;;;;;;5075121;28;20078;-70
2023/01/19 01:44:48;;;;;;;5.65;3.75;;;2.30;99.90;;;;;;5076283;28;20154;-70
2023/01/19 01:47:38;;;;;;;4.53;3.97;;;2.20;99.90;;;;;;5068741;28;20048;-70
2023/01/19 01:50:13;;;;;;;5.57;4.40;;;2.20;99.90;;;;;;5074761;28;20053;-70
2023/01/19 01:52:44;;;;;;;7.18;4.80;;;2.30;99.90;;;;;;5058212;28;20055;-70
2023/01/19 01:55:11;;;;;;;9.48;5.40;;;2.30;99.90;;;;;;5075158;28;20110;-70
2023/01/19 01:57:42;;;;;;;7.45;5.05;;;2.30;99.90;;;;;;5074834;28;20045;-70
2023/01/19 02:00:10;;;;;;;7.95;5.32;;;2.20;99.90;;;;;;5074756;28;20047;-70
2023/01/19 02:02:53;;;;;;;7.43;5.10;;;2.30;99.90;;;;;;5074744;28;20044;-70
2023/01/19 02:05:19;;;;;;;;;;;2.30;99.90;;;;;;5075399;28;20048;-70
2023/01/19 02:13:32;;;;;;;8.05;6.22;;;2.30;99.90;;;;;;5074576;28;20119;-70
2023/01/19 02:16:02;;;;;;;8.30;6.47;;;2.30;99.90;;;;;;5074776;28;20101;-70
2023/01/19 02:18:29;;;;;;;8.82;7.03;;;2.30;99.90;;;;;;5074406;28;20079;-70
2023/01/19 02:21:21;;;;;;;10.68;6.20;;;2.30;99.90;;;;;;5074693;28;20397;-70
2023/01/19 02:23:49;;;;;;;11.45;7.78;;;2.30;99.90;;;;;;5074659;28;20515;-70
2023/01/19 02:26:19;;;;;;;13.18;8.30;;;2.40;99.90;;;;;;5074325;28;20059;-70
2023/01/19 02:28:53;;;;;;;11.93;9.02;;;2.40;99.90;;;;;;5074267;28;20045;-70
2023/01/19 02:31:19;;;;;;;10.85;8.32;;;2.40;99.90;;;;;;5074187;28;20083;-70
2023/01/19 02:33:45;;;;;;;11.35;8.93;;;2.40;99.90;;;;;;5074159;28;20072;-70
2023/01/19 02:36:14;;;;;;;12.82;9.10;;;2.30;99.90;;;;;;5074155;28;20047;-70
2023/01/19 02:38:40;;;;;;;14.65;8.93;;;2.50;99.90;;;;;;5075552;28;20107;-70
2023/01/19 02:41:10;;;;;;;11.93;9.35;;;2.40;99.90;;;;;;5074287;28;20055;-70
2023/01/19 02:43:37;;;;;;;12.73;9.73;;;2.40;99.90;;;;;;5073705;28;20036;-70
2023/01/19 02:46:03;;;;;;;15.88;9.77;;;2.40;99.90;;;;;;5073925;28;20056;-70
2023/01/19 02:48:29;;;;;;;12.23;9.32;;;2.50;99.90;;;;;;5075080;28;20032;-70
2023/01/19 02:51:03;;;;;;;13.43;10.27;;;2.50;99.90;;;;;;5073645;28;20041;-70
2023/01/19 02:53:31;;;;;;;11.82;9.25;;;2.50;99.90;;;;;;5073819;28;20055;-70
2023/01/19 02:56:31;;;;;;;17.70;9.70;;;2.60;99.90;;;;;;5073739;28;20090;-70
2023/01/19 02:59:18;;;;;;;14.05;9.68;;;2.60;99.90;;;;;;5073657;28;20055;-70
2023/01/19 03:01:47;;;;;;;12.07;9.15;;;2.50;99.90;;;;;;5073899;28;20165;-70
2023/01/19 03:04:34;;;;;;;13.20;9.77;;;2.60;99.90;;;;;;5074793;28;20497;-70
2023/01/19 03:07:43;;;;;;;12.60;9.25;;;2.50;99.90;;;;;;5073570;28;20051;-70
2023/01/19 03:10:33;;;;;;;12.43;9.18;;;2.50;99.90;;;;;;5019245;28;20057;-70
2023/01/19 03:13:04;;;;;;;12.10;9.90;;;2.40;99.90;;;;;;5035978;28;20466;-70
2023/01/19 03:15:43;;;;;;;12.13;8.98;;;2.50;99.90;;;;;;5036078;28;20041;-70
2023/01/19 03:18:11;;;;;;;10.15;8.35;;;2.40;99.90;;;;;;5035802;28;20415;-70
2023/01/19 03:20:39;;;;;;;9.60;8.02;;;2.50;99.90;;;;;;5035970;28;20064;-70
2023/01/19 03:23:08;;;;;;;8.55;6.85;;;2.40;99.90;;;;;;5019143;28;20045;-70
2023/01/19 03:25:38;;;;;;;7.57;6.10;;;2.40;99.90;;;;;;5035661;28;20064;-70
2023/01/19 03:28:04;;;;;;;6.13;5.10;;;2.50;99.90;;;;;;5035856;28;20049;-70
2023/01/19 03:30:45;;;;;;;5.80;4.57;;;2.50;99.90;;;;;;5052184;28;20056;-70
2023/01/19 03:33:16;;;;;;;8.30;4.85;;;2.40;99.90;;;;;;5035611;28;20502;-70
2023/01/19 03:35:51;;;;;;;6.03;4.68;;;2.40;99.90;;;;;;5035808;28;20537;-70
2023/01/19 03:38:23;;;;;;;8.88;5.05;;;2.40;99.90;;;;;;5035658;28;20103;-70
2023/01/19 03:40:53;;;;;;;5.97;4.33;;;2.40;99.90;;;;;;5035663;28;20179;-70
2023/01/19 03:43:19;;;;;;;5.78;4.30;;;2.30;99.90;;;;;;5035354;28;20059;-70
2023/01/19 03:45:45;;;;;;;8.80;4.95;;;2.50;99.90;;;;;;5056059;28;20509;-70
2023/01/19 03:48:11;;;;;;;5.70;4.20;;;2.30;99.90;;;;;;5072879;28;20052;-70
2023/01/19 03:50:37;;;;;;;7.60;4.63;;;2.40;99.90;;;;;;5073797;28;20036;-70
2023/01/19 03:53:14;;;;;;;5.82;4.55;;;2.40;99.90;;;;;;5072566;28;20089;-70
2023/01/19 03:55:43;;;;;;;6.70;4.30;;;2.40;99.90;;;;;;5072120;28;20040;-70
2023/01/19 03:58:09;;;;;;;7.13;4.88;;;2.40;99.90;;;;;;5072448;28;20044;-70
2023/01/19 04:00:35;;;;;;;6.20;4.70;;;2.40;99.90;;;;;;5072496;28;20040;-70
2023/01/19 04:03:02;;;;;;;6.30;4.47;;;2.30;99.90;;;;;;5072412;28;20075;-70
2023/01/19 04:05:28;;;;;;;4.65;3.90;;;2.40;99.90;;;;;;5073945;28;20040;-70
2023/01/19 04:07:54;;;;;;;5.00;3.80;;;2.30;99.90;;;;;;5072356;28;20040;-70
2023/01/19 04:10:20;;;;;;;5.78;3.25;;;2.40;99.90;;;;;;5072192;28;20044;-70
2023/01/19 04:12:46;;;;;;;5.50;3.58;;;2.30;99.90;;;;;;5072497;28;20520;-70
2023/01/19 04:15:12;;;;;;;3.92;3.08;;;2.30;99.90;;;;;;5072248;28;20040;-70
2023/01/19 04:17:38;;;;;;;3.92;2.58;;;2.30;99.90;;;;;;5073464;28;20036;-70
2023/01/19 04:20:04;;;;;;;4.95;2.80;;;2.30;99.90;;;;;;5072391;28;20045;-70
2023/01/19 04:22:31;;;;;;;4.35;2.80;;;2.50;99.90;;;;;;5072403;28;20493;-70
2023/01/19 04:24:56;;;;;;;5.97;3.38;;;2.50;99.90;;;;;;5073419;28;20044;-70
2023/01/19 04:27:22;;;;;;;4.50;2.53;;;2.40;99.90;;;;;;5072338;28;20512;-71
2023/01/19 04:29:48;;;;;;;4.80;2.50;;;2.40;99.90;;;;;;5072176;28;20477;-70
2023/01/19 04:32:13;;;;;;;4.68;2.22;;;2.50;99.90;;;;;;5072002;28;20566;-70
2023/01/19 04:34:39;;;;;;;3.15;2.10;;;2.50;99.90;;;;;;5071999;28;20050;-70
2023/01/19 04:37:05;;;;;;;3.53;1.73;;;2.50;99.90;;;;;;5071958;28;20041;-70
2023/01/19 04:39:30;;;;;;;3.30;2.05;;;2.40;99.90;;;;;;5071876;28;20047;-70
2023/01/19 04:41:56;;;;;;;3.70;2.03;;;2.40;99.90;;;;;;5071902;28;20051;-70
2023/01/19 04:44:22;;;;;;;5.90;2.10;;;2.30;99.90;;;;;;5072142;28;20045;-70
2023/01/19 04:46:48;;;;;;;6.00;1.83;;;2.50;99.90;;;;;;5071864;28;20040;-70
2023/01/19 04:49:14;;;;;;;5.40;1.65;;;2.50;99.90;;;;;;5071637;28;20129;-70
2023/01/19 04:51:40;;;;;;;4.45;1.13;;;2.50;99.90;;;;;;5071776;28;20045;-70
2023/01/19 04:54:07;;;;;;;6.18;1.92;;;2.50;99.90;;;;;;5073026;28;20033;-70
2023/01/19 04:56:33;;;;;;;7.15;1.13;;;2.60;99.90;;;;;;5071802;28;20041;-70
2023/01/19 04:58:59;;;;;;;7.32;1.55;;;2.70;99.90;;;;;;5071660;28;20041;-70
2023/01/19 05:01:25;;;;;;;6.57;0.85;;;2.80;99.90;;;;;;5071996;28;20060;-70
2023/01/19 05:03:50;;;;;;;13.85;0.85;;;2.90;99.90;;;;;;5071698;28;20040;-70
2023/01/19 05:06:16;;;;;;;7.68;1.10;;;3.00;99.90;;;;;;5072309;28;20098;-70
2023/01/19 05:08:42;;;;;;;5.03;0.60;;;3.00;99.90;;;;;;5075743;28;20382;-70
2023/01/19 05:11:07;;;;;;;5.32;1.00;;;3.10;99.90;;;;;;5075703;28;20076;-70
2023/01/19 05:13:33;;;;;;;12.23;1.27;;;3.10;99.90;;;;;;5076970;28;20043;-70
2023/01/19 05:16:00;;;;;;;10.07;1.30;;;3.20;99.90;;;;;;5075648;28;20586;-70
2023/01/19 05:18:25;;;;;;;8.70;1.20;;;3.30;99.90;;;;;;5075553;28;20119;-70
2023/01/19 05:20:51;;;;;;;10.02;1.35;;;3.20;99.90;;;;;;5075572;28;20127;-70
2023/01/19 05:23:16;;;;;;;7.45;1.17;;;3.30;99.90;;;;;;5075519;28;20045;-70
2023/01/19 05:25:43;;;;;;;9.32;1.20;;;3.30;99.90;;;;;;5075414;28;20045;-70
2023/01/19 05:28:10;;;;;;;12.80;1.33;;;3.40;99.90;;;;;;5075635;28;20109;-70
2023/01/19 05:30:35;;;;;;;11.60;1.08;;;3.50;99.90;;;;;;5058563;28;20123;-70
2023/01/19 05:33:01;;;;;;;11.02;1.00;;;3.50;99.90;;;;;;5075301;28;20116;-70
2023/01/19 05:35:27;;;;;;;7.10;1.30;;;3.50;99.90;;;;;;5075296;28;20075;-70
2023/01/19 05:37:52;;;;;;;12.82;1.13;;;3.50;99.90;;;;;;5075281;28;20040;-70
2023/01/19 05:40:18;;;;;;;10.10;1.35;;;3.50;99.90;;;;;;5075084;28;20044;-70
2023/01/19 05:42:44;;;;;;;11.98;1.58;;;3.60;99.90;;;;;;5076636;28;20043;-70
2023/01/19 05:45:10;;;;;;;8.38;1.15;;;3.60;99.90;;;;;;5075130;28;20405;-70
2023/01/19 05:47:36;;;;;;;5.72;1.05;;;3.50;99.90;;;;;;5076286;28;20048;-71
2023/01/19 05:50:02;;;;;;;9.93;1.30;;;3.50;99.90;;;;;;5074922;28;20090;-70
2023/01/19 05:52:28;;;;;;;8.75;1.00;;;3.60;99.90;;;;;;5075194;28;20041;-70
2023/01/19 05:54:54;;;;;;;4.68;0.90;;;3.60;99.90;;;;;;5075209;28;20036;-70
2023/01/19 05:57:20;;;;;;;7.90;1.05;;;3.60;99.90;;;;;;5075137;28;20127;-70
2023/01/19 05:59:46;;;;;;;7.47;0.90;;;3.60;99.90;;;;;;5074758;28;20037;-70
2023/01/19 06:02:11;;;;;;;6.60;1.20;;;3.50;99.90;;;;;;5075030;28;20102;-70
2023/01/19 06:04:37;;;;;;;5.78;1.00;;;3.50;99.90;;;;;;5075023;28;20123;-70
2023/01/19 06:07:05;;;;;;;8.02;1.00;;;3.50;99.90;;;;;;5074677;28;20447;-70
2023/01/19 06:09:31;;;;;;;9.27;1.20;;;3.40;99.90;;;;;;5075848;28;20040;-70
2023/01/19 06:11:58;;;;;;;9.25;1.08;;;3.40;99.90;;;;;;5074521;28;20523;-70
2023/01/19 06:14:25;;;;;;;7.95;1.20;;;3.40;99.90;;;;;;5074541;28;20511;-70
2023/01/19 06:16:50;;;;;;;9.10;0.93;;;3.40;99.90;;;;;;5074754;28;20044;-70
2023/01/19 06:19:16;;;;;;;7.43;0.88;;;3.50;99.90;;;;;;5073940;28;20393;-70
2023/01/19 06:21:48;;;;;;;8.07;1.10;;;3.40;99.90;;;;;;5074451;28;20079;-70
2023/01/19 06:24:14;;;;;;;12.65;1.00;;;3.50;99.90;;;;;;5074420;28;20106;-70
2023/01/19 06:26:41;;;;;;;6.63;0.77;;;3.50;99.90;;;;;;5074297;28;20408;-70
2023/01/19 06:29:08;;;;;;;9.45;1.20;;;3.40;99.90;;;;;;5074233;28;20078;-70
2023/01/19 06:31:34;;;;;;;7.15;1.17;;;3.40;99.90;;;;;;5074158;28;20072;-70
2023/01/19 06:33:59;;;;;;;9.75;1.27;;;3.40;99.90;;;;;;5074183;28;20117;-70
2023/01/19 06:36:25;;;;;;;8.57;1.63;;;3.40;99.90;;;;;;5074181;28;20040;-70
2023/01/19 06:38:51;;;;;;;6.65;1.20;;;3.30;99.90;;;;;;5075265;28;20028;-70
2023/01/19 06:41:16;;;;;;;8.75;1.20;;;3.30;99.90;;;;;;5074326;28;20051;-70
2023/01/19 06:43:42;;;;;;;6.30;0.90;;;3.30;99.90;;;;;;5074050;28;20473;-70
2023/01/19 06:46:07;;;;;;;6.45;0.93;;;3.20;99.90;;;;;;5073974;28;20045;-70
2023/01/19 06:48:33;;;;;;;7.25;0.90;;;3.20;99.90;;;;;;5074117;28;20120;-70
2023/01/19 06:50:58;;;;;;;8.75;0.90;;;3.20;99.90;;;;;;5073786;28;20413;-70
2023/01/19 06:53:26;;;;;;;15.75;1.33;;;3.20;99.90;;;;;;5073856;28;20042;-70
2023/01/19 06:55:52;;;;;;;7.85;1.10;;;3.20;99.90;;;;;;5075015;28;20040;-70
2023/01/19 06:58:17;;;;;;;11.02;1.05;;;3.10;99.90;;;;;;5073957;28;20086;-70
2023/01/19 07:00:43;;;;;;;8.15;1.20;;;3.20;99.90;;;;;;5073705;28;20490;-70
2023/01/19 07:03:18;;;;;;;11.02;1.20;;;3.20;99.90;;;;;;5073664;28;20123;-72
2023/01/19 07:05:43;;;;;;;10.93;1.33;;;3.30;99.90;;;;;;5073650;28;20076;-71
2023/01/19 07:08:09;;;;;;;10.52;1.13;;;3.20;99.90;;;;;;5074733;28;20080;-70
2023/01/19 07:10:36;;;;;;;12.25;1.48;;;3.30;99.90;;;;;;5073403;28;20045;-70
2023/01/19 07:13:01;;;;;;;11.20;1.30;;;3.40;99.90;;;;;;5073373;28;20082;-70
2023/01/19 07:15:27;;;;;;;8.10;1.50;;;3.40;99.90;;;;;;5073380;28;20036;-70
2023/01/19 07:17:57;;;;;;;9.77;1.65;;;3.50;99.90;;;;;;5073664;28;20093;-70
2023/01/19 07:20:22;;;;;;;12.68;1.73;;;3.50;99.90;;;;;;5073456;28;20113;-70
2023/01/19 07:22:55;;;;;;;8.88;1.30;;;3.60;99.90;;;;;;5074525;28;20408;-71
2023/01/19 07:25:21;;;;;;;16.25;1.60;;;3.60;99.90;;;;;;5073217;28;20401;-70
2023/01/19 07:27:46;;;;;;;12.63;1.63;;;3.50;99.90;;;;;;5073116;28;20033;-71
2023/01/19 07:30:14;;;;;;;10.18;1.50;;;3.50;99.90;;;;;;5071909;28;20037;-70
2023/01/19 07:32:41;;;;;;;11.65;1.70;;;3.50;99.90;;;;;;5074263;28;20482;-70
2023/01/19 07:35:08;;;;;;;13.23;1.88;;;3.50;99.90;;;;;;5073261;28;20185;-70
2023/01/19 07:37:34;;;;;;;11.88;1.73;;;3.50;99.90;;;;;;5072958;28;20040;-70
2023/01/19 07:40:00;;;;;;;14.20;2.03;;;3.50;99.90;;;;;;5072812;28;20119;-70
2023/01/19 07:42:25;;;;;;;15.75;2.25;;;3.50;99.90;;;;;;5074116;28;20115;-70
2023/01/19 07:44:51;;;;;;;13.43;2.13;;;3.40;99.90;;;;;;5072798;28;20036;-70
2023/01/19 07:47:17;;;;;;;21.95;1.73;;;3.50;99.90;;;;;;5072811;28;20044;-70
2023/01/19 07:49:42;;;;;;;14.75;1.75;;;3.50;99.90;;;;;;5072789;28;20054;-70
2023/01/19 07:52:08;;;;;;;18.38;2.35;;;3.50;99.90;;;;;;5072598;28;20497;-71
2023/01/19 07:54:34;;;;;;;16.27;2.00;;;3.50;99.90;;;;;;5073610;28;20037;-71
2023/01/19 07:56:59;;;;;;;20.13;2.25;;;3.60;99.90;;;;;;5072587;28;20626;-71
2023/01/19 07:59:26;;;;;;;18.67;1.85;;;3.60;99.90;;;;;;5073991;28;20033;-70
2023/01/19 08:01:52;;;;;;;16.65;2.28;;;3.60;99.90;;;;;;5072512;28;20120;-71
2023/01/19 08:04:18;;;;;;;10.85;1.73;;;3.60;99.90;;;;;;5072419;28;20059;-70
2023/01/19 08:06:46;;;;;;;13.07;1.65;;;3.50;99.90;;;;;;5072427;28;20052;-70
2023/01/19 08:09:11;;;;;;;18.48;2.20;;;3.50;99.90;;;;;;5073575;28;20044;-70
2023/01/19 08:11:37;;;;;;;14.07;2.08;;;3.50;99.90;;;;;;5072335;28;20067;-70
2023/01/19 08:14:03;;;;;;;16.27;2.00;;;3.40;99.90;;;;;;5072263;28;20037;-70
2023/01/19 08:16:29;;;;;;;12.88;1.88;;;3.30;99.90;;;;;;5072507;28;20115;-70
2023/01/19 08:18:54;;;;;;;15.75;1.92;;;3.50;99.90;;;;;;5072450;28;20651;-70
2023/01/19 08:21:20;;;;;;;15.80;2.03;;;3.50;99.90;;;;;;5072158;28;20498;-70
2023/01/19 08:23:53;;;;;;;19.55;2.28;;;3.30;99.90;;;;;;5072153;28;20040;-70
2023/01/19 08:26:22;;;;;;;;;;;3.30;99.90;;;;;;5072572;28;20048;-71
2023/01/19 08:28:48;;;;;;;19.77;2.67;;;3.30;99.90;;;;;;5072164;28;19916;-71
2023/01/19 08:31:14;;;;;;;17.08;2.22;;;3.30;99.90;;;;;;5073388;28;20045;-71
2023/01/19 08:33:41;;;;;;;16.88;2.85;;;3.40;99.90;;;;;;5072370;28;20040;-70
2023/01/19 08:36:07;;;;;;;11.85;1.92;;;3.40;99.90;;;;;;5072040;28;20090;-70
2023/01/19 08:38:32;;;;;;;11.45;2.20;;;3.40;99.90;;;;;;5072220;28;20033;-70
2023/01/19 08:40:58;;;;;;;13.80;1.90;;;3.40;99.90;;;;;;5071590;28;20409;-70
2023/01/19 08:43:24;;;;;;;24.45;3.05;;;3.40;99.90;;;;;;5072078;28;20045;-70
2023/01/19 08:45:51;;;;;;;16.27;2.50;;;3.40;99.90;;;;;;5072127;28;20055;-70
2023/01/19 08:48:20;;;;;;;18.00;2.83;;;3.50;99.90;;;;;;5055073;28;20049;-72
2023/01/19 08:50:47;;;;;;;14.65;1.98;;;3.50;99.90;;;;;;5071581;28;20051;-71
2023/01/19 08:53:14;;;;;;;21.63;3.03;;;3.60;99.90;;;;;;5072126;28;20136;-71
2023/01/19 08:55:40;;;;;;;16.45;2.65;;;3.50;99.90;;;;;;5071770;28;20049;-71
2023/01/19 08:58:07;;;;;;;19.67;2.35;;;3.60;99.90;;;;;;5071700;28;20086;-70
2023/01/19 09:00:34;;;;;;;18.50;2.67;;;3.50;99.90;;;;;;5072007;28;20048;-71
2023/01/19 09:03:03;;;;;;;17.58;3.00;;;3.50;99.90;;;;;;5071654;28;20052;-73
2023/01/19 09:05:34;;;;;;;21.45;2.70;;;3.50;99.90;;;;;;5071728;28;20050;-73
2023/01/19 09:08:01;;;;;;;17.38;3.00;;;3.60;99.90;;;;;;5071647;28;20075;-74
2023/01/19 09:10:30;;;;;;;18.08;3.42;;;3.60;99.90;;;;;;5071722;28;20045;-73
2023/01/19 09:12:56;;;;;;;21.05;2.80;;;3.60;99.90;;;;;;5055203;28;20042;-73
2023/01/19 09:15:22;;;;;;;23.77;3.45;;;3.60;99.90;;;;;;5071609;28;20453;-73
2023/01/19 09:17:50;;;;;;;19.60;2.75;;;3.60;99.90;;;;;;5071570;28;20135;-73
2023/01/19 09:20:16;;;;;;;21.38;3.30;;;3.60;99.90;;;;;;5071541;28;20072;-73
2023/01/19 09:22:41;;;;;;;21.05;3.38;;;3.60;99.90;;;;;;5071483;28;20095;-73
2023/01/19 09:25:07;;;;;;;19.15;2.15;;;3.60;99.90;;;;;;5071325;28;20127;-74
2023/01/19 09:27:33;;;;;;;17.58;2.45;;;3.60;99.90;;;;;;5055075;28;20040;-73
2023/01/19 09:29:59;;;;;;;24.05;3.13;;;3.60;99.90;;;;;;5071378;28;20178;-73
2023/01/19 09:32:25;;;;;;;18.48;2.58;;;3.50;99.90;;;;;;5071454;28;20127;-73
2023/01/19 09:34:52;;;;;;;16.98;3.00;;;3.50;99.90;;;;;;5071703;28;20045;-73
2023/01/19 09:37:18;;;;;;;16.75;2.72;;;3.50;99.90;;;;;;5071716;28;20154;-73
2023/01/19 09:39:44;;;;;;;17.70;2.60;;;3.50;99.90;;;;;;5071289;28;20127;-73
2023/01/19 09:42:30;;;;;;;21.02;3.15;;;3.60;99.90;;;;;;5071355;28;20101;-73
2023/01/19 09:44:55;;;;;;;19.95;2.53;;;3.60;99.90;;;;;;5071380;28;20044;-73
2023/01/19 09:47:27;;;;;;;14.00;2.00;;;3.60;99.90;;;;;;5071259;28;20072;-73
2023/01/19 09:50:01;;;;;;;11.80;2.00;;;3.70;99.90;;;;;;5071109;28;20052;-73
2023/01/19 09:52:29;;;;;;;18.73;2.28;;;3.80;99.90;;;;;;5054836;28;20045;-73
2023/01/19 09:54:56;;;;;;;12.43;1.85;;;3.80;99.90;;;;;;5074312;28;20040;-74
2023/01/19 09:57:24;;;;;;;12.93;1.88;;;3.90;99.90;;;;;;5074932;28;20046;-74
2023/01/19 09:59:50;;;;;;;13.40;1.90;;;3.90;99.90;;;;;;5058092;28;20049;-74
2023/01/19 10:02:15;;;;;;;14.93;2.60;;;3.90;99.90;;;;;;5074802;28;20040;-74
2023/01/19 10:04:51;;;;;;;19.23;2.10;;;4.00;99.90;;;;;;5074752;28;20043;-74
2023/01/19 10:07:39;;;;;;;12.23;2.30;;;4.10;99.90;;;;;;5074729;28;20524;-73
2023/01/19 10:10:19;;;;;;;14.82;2.05;;;4.10;99.90;;;;;;5074519;28;20044;-74
2023/01/19 10:13:11;;;;;;;14.27;2.40;;;4.20;99.90;;;;;;5074640;28;20036;-73
2023/01/19 10:16:13;;;;;;;16.60;2.20;;;4.30;99.90;;;;;;5074604;28;20037;-74
2023/01/19 10:18:46;;;;;;;16.63;2.22;;;4.40;99.90;;;;;;5067738;28;20053;-74
2023/01/19 10:21:21;;;;;;;16.35;2.15;;;4.40;99.90;;;;;;5074788;28;20044;-74
2023/01/19 10:24:05;;;;;;;14.82;2.58;;;4.50;99.90;;;;;;5074379;28;20051;-74
2023/01/19 10:26:42;;;;;;;17.20;2.42;;;4.60;99.90;;;;;;5074391;28;20091;-74
2023/01/19 10:29:34;;;;;;;17.40;2.63;;;4.60;99.90;;;;;;5074271;28;20051;-74
2023/01/19 10:32:11;;;;;;;14.43;2.28;;;4.70;99.90;;;;;;5074295;28;20106;-74
2023/01/19 10:34:37;;;;;;;22.48;2.30;;;4.80;99.90;;;;;;5057849;28;20489;-74
2023/01/19 10:37:38;;;;;;;15.63;2.20;;;4.80;99.90;;;;;;5074175;28;20105;-74
2023/01/19 10:40:09;;;;;;;13.40;1.88;;;4.90;99.90;;;;;;5074318;28;20190;-73
2023/01/19 10:42:38;;;;;;;15.27;2.35;;;5.00;99.90;;;;;;5074333;28;20041;-73
2023/01/19 10:45:17;;;;;;;15.52;2.60;;;5.00;99.90;;;;;;5074009;28;20036;-73
2023/01/19 10:47:44;;;;;;;10.27;2.03;;;5.10;99.90;;;;;;5074424;28;20516;-73
2023/01/19 10:50:24;;;;;;;15.73;1.95;;;5.10;99.90;;;;;;5074107;28;20123;-74
2023/01/19 10:52:51;;;;;;;11.25;1.60;;;5.20;99.90;;;;;;5073879;28;20047;-74
2023/01/19 10:55:29;;;;;;;19.80;2.13;;;5.20;99.90;;;;;;5073850;28;20044;-74
2023/01/19 10:57:56;;;;;;;14.73;1.90;;;5.30;99.90;;;;;;5057407;28;20512;-74
2023/01/19 11:00:29;;;;;;;14.00;1.50;;;5.30;99.90;;;;;;5073951;28;20133;-73
2023/01/19 11:02:54;;;;;;;17.20;2.05;;;5.40;99.90;;;;;;5073991;28;20092;-74
2023/01/19 11:05:24;;;;;;;17.27;1.95;;;5.50;99.90;;;;;;5056748;28;20574;-73
2023/01/19 11:07:49;;;;;;;9.85;1.92;;;5.50;99.90;;;;;;5073618;28;20036;-71
2023/01/19 11:10:15;;;;;;;13.35;2.17;;;5.50;99.90;;;;;;5073620;28;20059;-71
2023/01/19 11:12:42;;;;;;;8.88;1.60;;;5.60;99.90;;;;;;5073738;28;20436;-71
2023/01/19 11:15:28;;;;;;;10.57;1.83;;;5.60;99.90;;;;;;5074008;28;20048;-71
2023/01/19 11:17:54;;;;;;;13.75;1.90;;;5.70;99.90;;;;;;5066189;28;20544;-71
2023/01/19 11:20:42;;;;;;;13.27;1.85;;;5.70;99.90;;;;;;5073259;28;20040;-71
2023/01/19 11:23:14;;;;;;;8.40;1.23;;;5.80;99.90;;;;;;5073279;28;20033;-71
2023/01/19 11:25:44;;;;;;;9.00;1.52;;;5.80;99.90;;;;;;5057631;28;20067;-71
2023/01/19 11:28:32;;;;;;;15.05;2.00;;;6.00;99.90;;;;;;5073127;28;20048;-71
2023/01/19 11:31:01;;;;;;;13.98;1.67;;;6.30;99.90;;;;;;5073243;28;20045;-71
2023/01/19 11:33:45;;;;;;;13.82;2.53;;;7.20;99.90;;;;;;5073081;28;20033;-72
2023/01/19 11:36:23;;;;;;;9.75;2.08;;;8.50;99.90;;;;;;5073299;28;20350;-71
2023/01/19 11:38:55;;;;;;;12.93;1.92;;;9.40;99.90;;;;;;5073413;28;20114;-71
2023/01/19 11:41:20;;;;;;;10.63;1.88;;;9.90;99.90;;;;;;5072873;28;20036;-71
2023/01/19 11:43:50;;;;;;;10.35;1.58;;;10.00;99.90;;;;;;5072870;28;20040;-71
2023/01/19 11:46:17;;;;;;;15.60;2.10;;;10.20;99.90;;;;;;5073054;28;20066;-71
2023/01/19 11:49:08;;;;;;;10.85;1.85;;;10.60;99.90;;;;;;5072948;28;20048;-71
2023/01/19 11:51:45;;;;;;;10.90;1.40;;;10.80;99.50;;;;;;5072234;28;20135;-71
2023/01/19 11:54:30;;;;;;;11.30;1.40;;;11.00;99.70;;;;;;5073965;28;20043;-71
2023/01/19 11:56:58;;;;;;;13.55;2.00;;;11.40;98.00;;;;;;5072669;28;20048;-71
2023/01/19 11:59:24;;;;;;;9.00;1.75;;;11.60;97.60;;;;;;5072746;28;20041;-71
2023/01/19 12:01:56;;;;;;;12.52;1.70;;;11.50;96.80;;;;;;5072513;28;20497;-71
2023/01/19 12:04:33;;;;;;;9.07;1.40;;;11.70;95.60;;;;;;5072529;28;20048;-71
2023/01/19 12:07:07;;;;;;;10.75;1.98;;;11.50;93.80;;;;;;5072442;28;20059;-71
2023/01/19 12:09:46;;;;;;;12.02;1.67;;;10.80;94.70;;;;;;5072409;28;20044;-71
2023/01/19 12:12:25;;;;;;;9.82;1.33;;;10.40;94.40;;;;;;5072325;28;20048;-71
2023/01/19 12:15:17;;;;;;;9.57;1.52;;;10.30;94.90;;;;;;5072266;28;20043;-71
2023/01/19 12:17:47;;;;;;;8.68;1.20;;;10.00;93.40;;;;;;5071946;28;20048;-71
2023/01/19 12:20:38;;;;;;;6.22;1.23;;;9.60;94.80;;;;;;5072141;28;20037;-71
2023/01/19 12:23:08;;;;;;;12.45;1.20;;;9.80;95.00;;;;;;5072466;28;20127;-71
2023/01/19 12:25:59;;;;;;;10.68;1.33;;;10.30;94.10;;;;;;5072123;28;20400;-71
2023/01/19 12:28:35;;;;;;;10.18;1.55;;;11.20;92.30;;;;;;5072121;28;20044;-71
2023/01/19 12:31:02;;;;;;;5.85;1.00;;;12.30;88.90;;;;;;5072033;28;20044;-72
2023/01/19 12:33:32;;;;;;;5.40;1.00;;;13.40;86.60;;;;;;5072043;28;20516;-71
2023/01/19 12:36:01;;;;;;;7.72;1.40;;;14.40;81.10;;;;;;5073261;28;20044;-72
2023/01/19 12:38:39;;;;;;;7.55;1.52;;;15.40;77.80;;;;;;5072188;28;20119;-71
2023/01/19 12:41:31;;;;;;;7.95;1.10;;;16.10;70.80;;;;;;5071956;28;20490;-72
2023/01/19 12:44:09;;;;;;;5.97;1.20;;;16.30;63.50;;;;;;5071817;28;20570;-72
2023/01/19 12:46:37;;;;;;;9.35;1.08;;;16.30;63.50;;;;;;5071889;28;20044;-71
2023/01/19 12:49:16;;;;;;;8.73;1.55;;;15.60;65.80;;;;;;5071885;28;20048;-71
2023/01/19 12:51:42;;;;;;;7.88;1.15;;;13.80;64.30;;;;;;5071925;28;20048;-71
2023/01/19 12:54:31;;;;;;;4.68;1.05;;;12.30;71.30;;;;;;5072061;28;20545;-71
2023/01/19 12:57:05;;;;;;;8.57;1.15;;;11.70;72.60;;;;;;5072087;28;20071;-71
2023/01/19 12:59:34;;;;;;;9.02;1.05;;;11.50;74.40;;;;;;5071716;28;20044;-71
2023/01/19 13:02:19;;;;;;;12.90;1.65;;;11.80;75.50;;;;;;5071755;28;20093;-71
2023/01/19 13:05:23;;;;;;;7.70;1.27;;;12.00;72.60;;;;;;5071724;28;20052;-71
2023/01/19 13:08:13;;;;;;;8.63;1.20;;;11.90;72.70;;;;;;5034386;28;20048;-71
2023/01/19 13:10:57;;;;;;;7.65;1.55;;;11.50;72.80;;;;;;5026847;28;20063;-71